Time;durP1;ratioP1;P1;durP2;ratioP2;P2;SDS_P1;SDS_P2;PMS_P1;PMS_P2;Temp;Humidity;BMP_temperature;BMP_pressure;BME280_temperature;BME280_humidity;BME280_pressure;Samples;Min_cycle;Max_cycle;Signal;HPM_P1;HPM_P2
2023/11/13 00:00:30;;;;;;;1.90;1.70;;;;;;;21.05;50.41;97356.25;106316;1254;61400;-48
2023/11/13 00:02:58;;;;;;;1.70;1.60;;;;;;;21.05;50.36;97357.88;106045;1251;61313;-47
2023/11/13 00:05:25;;;;;;;1.60;1.50;;;;;;;21.04;50.44;97354.84;106473;1251;73185;-47
2023/11/13 00:07:55;;;;;;;1.80;1.70;;;;;;;21.04;50.39;97354.19;105909;1254;66495;-48
2023/11/13 00:10:23;;;;;;;1.70;1.60;;;;;;;21.04;50.33;97357.95;106493;1250;71132;-48
2023/11/13 00:12:50;;;;;;;2.10;1.80;;;;;;;21.04;50.43;97353.42;106009;1254;61307;-49
2023/11/13 00:15:19;;;;;;;2.40;1.80;;;;;;;21.03;50.34;97350.52;106536;1251;61224;-48
2023/11/13 00:17:47;;;;;;;1.90;1.60;;;;;;;21.03;50.37;97354.97;105981;1254;74699;-47
2023/11/13 00:20:15;;;;;;;1.70;1.60;;;;;;;21.03;50.29;97356.76;105943;1255;65863;-50
2023/11/13 00:22:42;;;;;;;1.90;1.70;;;;;;;21.03;50.31;97358.52;106019;1251;72486;-49
2023/11/13 00:25:09;;;;;;;2.00;1.80;;;;;;;21.03;50.37;97360.87;105760;1257;61327;-50
2023/11/13 00:27:37;;;;;;;1.60;1.50;;;;;;;21.03;50.44;97362.65;105722;1251;61317;-50
2023/11/13 00:30:06;;;;;;;2.00;1.90;;;;;;;21.03;50.38;97364.14;105774;1254;75399;-48
2023/11/13 00:32:33;;;;;;;1.80;1.70;;;;;;;21.02;50.38;97361.33;105985;1251;66272;-48
2023/11/13 00:35:01;;;;;;;1.60;1.50;;;;;;;21.02;50.37;97369.95;105913;1251;72626;-50
2023/11/13 00:37:29;;;;;;;2.00;1.80;;;;;;;21.02;50.34;97370.72;105843;1256;61251;-50
2023/11/13 00:39:56;;;;;;;1.50;1.40;;;;;;;21.01;50.30;97369.79;105798;1250;61175;-50
2023/11/13 00:42:24;;;;;;;1.90;1.80;;;;;;;21.01;50.42;97368.94;105751;1256;74705;-48
2023/11/13 00:44:51;;;;;;;2.30;1.90;;;;;;;21.01;50.36;97370.56;105912;1254;66185;-48
2023/11/13 00:47:19;;;;;;;1.50;1.40;;;;;;;21.02;50.43;97374.61;105813;1254;73130;-48
2023/11/13 00:49:46;;;;;;;1.80;1.70;;;;;;;21.01;50.42;97370.55;105670;1254;61298;-49
2023/11/13 00:52:14;;;;;;;2.40;2.00;;;;;;;21.01;50.26;97369.55;105923;1251;61358;-48
2023/11/13 00:54:42;;;;;;;1.70;1.60;;;;;;;21.01;50.49;97371.65;105904;1254;74297;-49
2023/11/13 00:57:09;;;;;;;2.00;1.80;;;;;;;21.00;50.38;97372.05;105890;1255;66325;-48
2023/11/13 00:59:36;;;;;;;2.10;1.90;;;;;;;21.00;50.47;97379.66;105587;1251;72314;-49
2023/11/13 01:02:04;;;;;;;1.80;1.70;;;;;;;21.00;50.47;97379.95;105665;1256;61228;-48
2023/11/13 01:04:31;;;;;;;2.10;1.90;;;;;;;21.00;50.43;97381.52;105650;1251;61145;-49
2023/11/13 01:06:59;;;;;;;1.70;1.60;;;;;;;20.99;50.40;97386.58;105642;1255;74572;-48
2023/11/13 01:09:26;;;;;;;1.80;1.60;;;;;;;20.99;50.31;97392.39;105635;1255;66525;-48
2023/11/13 01:11:54;;;;;;;2.40;1.80;;;;;;;20.99;50.32;97395.20;105706;1251;72515;-49
2023/11/13 01:14:21;;;;;;;1.70;1.60;;;;;;;20.98;50.27;97396.12;105576;1256;61669;-49
2023/11/13 01:16:48;;;;;;;1.70;1.60;;;;;;;20.98;50.39;97399.70;105648;1251;61222;-48
2023/11/13 01:19:16;;;;;;;1.70;1.60;;;;;;;20.98;50.44;97405.30;105682;1256;75061;-48
2023/11/13 01:21:44;;;;;;;1.90;1.80;;;;;;;20.97;50.44;97408.09;105984;1255;66279;-48
2023/11/13 01:24:11;;;;;;;2.10;1.90;;;;;;;20.98;50.38;97409.90;105662;1251;72639;-48
2023/11/13 01:26:39;;;;;;;1.90;1.80;;;;;;;20.98;50.47;97410.27;105654;1255;61267;-48
2023/11/13 01:29:06;;;;;;;1.90;1.70;;;;;;;20.98;50.42;97414.94;105611;1254;61317;-48
2023/11/13 01:31:34;;;;;;;2.10;1.50;;;;;;;20.97;50.40;97411.75;105726;1257;74574;-48
2023/11/13 01:34:02;;;;;;;2.60;1.80;;;;;;;20.97;50.26;97412.91;105877;1256;66307;-48
2023/11/13 01:36:30;;;;;;;2.20;1.80;;;;;;;20.97;50.50;97415.64;105950;1251;73113;-48
2023/11/13 01:38:57;;;;;;;2.20;2.00;;;;;;;20.97;50.49;97416.64;105751;1256;61360;-48
2023/11/13 01:41:24;;;;;;;2.90;2.00;;;;;;;20.97;50.38;97414.98;105544;1251;61267;-48
2023/11/13 01:43:52;;;;;;;2.20;1.60;;;;;;;20.97;50.36;97416.23;105609;1252;74547;-48
2023/11/13 01:46:19;;;;;;;2.00;1.80;;;;;;;20.96;50.34;97419.60;105699;1256;65694;-48
2023/11/13 01:48:47;;;;;;;2.40;2.10;;;;;;;20.96;50.43;97419.11;105848;1253;72773;-48
2023/11/13 01:51:15;;;;;;;1.80;1.70;;;;;;;20.96;50.33;97419.91;105789;1257;61227;-48
2023/11/13 01:53:42;;;;;;;2.50;1.70;;;;;;;20.95;50.43;97417.48;105473;1251;61231;-48
2023/11/13 01:56:09;;;;;;;2.00;1.80;;;;;;;20.95;50.46;97419.12;105656;1255;74561;-48
2023/11/13 01:58:37;;;;;;;2.70;1.70;;;;;;;20.96;50.42;97416.39;105442;1259;65919;-48
2023/11/13 02:01:05;;;;;;;2.10;1.60;;;;;;;20.95;50.45;97427.20;105757;1254;72662;-48
2023/11/13 02:03:34;;;;;;;1.70;1.60;;;;;;;20.95;50.38;97431.10;105614;1256;61234;-48
2023/11/13 02:06:01;;;;;;;2.00;1.60;;;;;;;20.96;50.45;97435.45;105751;1254;61329;-48
2023/11/13 02:08:29;;;;;;;2.10;1.90;;;;;;;20.95;50.39;97436.84;105832;1254;75010;-50
2023/11/13 02:10:56;;;;;;;2.30;1.60;;;;;;;20.95;50.45;97436.61;107380;1251;64448;-50
2023/11/13 02:13:24;;;;;;;1.70;1.60;;;;;;;20.95;50.41;97432.41;109090;1251;71845;-49
2023/11/13 02:15:52;;;;;;;1.80;1.70;;;;;;;20.96;50.43;97432.82;109426;1251;59250;-50
2023/11/13 02:18:19;;;;;;;1.70;1.60;;;;;;;20.97;50.41;97434.91;106863;1251;61388;-51
2023/11/13 02:20:46;;;;;;;3.30;1.70;;;;;;;20.98;50.41;97436.80;105985;1255;74443;-48
2023/11/13 02:23:14;;;;;;;1.80;1.60;;;;;;;20.98;50.47;97436.64;105904;1256;64311;-48
2023/11/13 02:25:42;;;;;;;2.00;1.80;;;;;;;20.99;50.32;97442.88;105781;1251;72328;-48
2023/11/13 02:28:09;;;;;;;1.80;1.60;;;;;;;20.99;50.32;97443.58;105699;1259;61244;-48
2023/11/13 02:30:37;;;;;;;1.70;1.60;;;;;;;21.00;50.37;97445.08;106043;1254;61286;-48
2023/11/13 02:33:05;;;;;;;1.90;1.70;;;;;;;20.99;50.47;97445.68;105934;1255;75112;-48
2023/11/13 02:35:33;;;;;;;1.70;1.60;;;;;;;21.00;50.34;97450.74;106177;1256;65032;-48
2023/11/13 02:38:00;;;;;;;2.50;1.90;;;;;;;21.00;50.21;97449.66;105674;1252;73618;-48
2023/11/13 02:40:28;;;;;;;1.90;1.80;;;;;;;21.00;50.31;97455.27;105689;1256;61215;-48
2023/11/13 02:42:55;;;;;;;1.60;1.40;;;;;;;20.99;50.22;97454.92;105664;1251;61332;-48
2023/11/13 02:45:23;;;;;;;1.80;1.70;;;;;;;20.99;50.29;97461.85;106210;1254;74690;-48
2023/11/13 02:47:51;;;;;;;1.70;1.60;;;;;;;20.98;50.27;97461.77;105787;1255;66204;-49
2023/11/13 02:50:20;;;;;;;3.10;1.70;;;;;;;20.98;50.33;97464.50;105999;1251;71829;-49
2023/11/13 02:52:48;;;;;;;1.60;1.50;;;;;;;20.98;50.19;97466.60;105949;1256;61333;-49
2023/11/13 02:55:16;;;;;;;1.60;1.50;;;;;;;20.98;50.43;97469.39;105899;1253;61329;-49
2023/11/13 02:57:43;;;;;;;1.70;1.50;;;;;;;20.98;50.33;97466.44;105678;1256;74599;-48
2023/11/13 03:00:11;;;;;;;2.30;1.80;;;;;;;20.98;50.37;97466.83;105601;1255;66139;-49
2023/11/13 03:02:39;;;;;;;1.80;1.50;;;;;;;20.98;50.17;97463.95;105536;1255;71173;-48
2023/11/13 03:05:08;;;;;;;1.70;1.60;;;;;;;20.97;50.20;97460.28;105554;1256;61252;-48
2023/11/13 03:07:36;;;;;;;2.20;1.80;;;;;;;20.97;50.25;97463.77;105629;1256;61284;-48
2023/11/13 03:10:05;;;;;;;2.00;1.70;;;;;;;20.96;50.38;97462.67;105607;1257;74551;-48
2023/11/13 03:12:32;;;;;;;1.80;1.60;;;;;;;20.97;50.37;97465.65;105724;1251;65476;-48
2023/11/13 03:15:00;;;;;;;1.50;1.40;;;;;;;20.97;50.40;97470.23;105856;1251;72401;-49
2023/11/13 03:17:28;;;;;;;1.70;1.60;;;;;;;20.97;50.33;97471.16;106005;1254;61323;-49
2023/11/13 03:19:56;;;;;;;1.70;1.60;;;;;;;20.98;50.34;97473.20;105875;1256;61240;-48
2023/11/13 03:22:23;;;;;;;1.50;1.40;;;;;;;20.97;50.42;97471.70;105914;1251;74602;-48
2023/11/13 03:24:51;;;;;;;1.50;1.40;;;;;;;20.97;50.42;97472.27;105998;1256;65543;-48
2023/11/13 03:27:18;;;;;;;1.60;1.50;;;;;;;20.98;50.46;97475.61;105972;1252;73244;-49
2023/11/13 03:29:45;;;;;;;2.10;1.70;;;;;;;20.98;50.34;97477.64;105796;1256;61336;-49
2023/11/13 03:32:13;;;;;;;1.70;1.60;;;;;;;20.98;50.33;97476.47;105602;1251;61343;-48
2023/11/13 03:34:40;;;;;;;1.60;1.50;;;;;;;20.98;50.38;97478.49;105632;1256;74606;-48
2023/11/13 03:37:08;;;;;;;2.00;1.60;;;;;;;20.98;50.35;97477.80;105805;1256;66075;-48
2023/11/13 03:39:36;;;;;;;1.70;1.60;;;;;;;20.98;50.29;97483.55;105642;1254;72642;-48
2023/11/13 03:42:04;;;;;;;1.60;1.50;;;;;;;20.99;50.38;97479.20;105941;1251;61265;-48
2023/11/13 03:44:31;;;;;;;2.30;1.50;;;;;;;20.99;50.41;97481.06;105968;1256;61320;-48
2023/11/13 03:46:58;;;;;;;1.30;1.20;;;;;;;20.99;50.36;97486.36;105914;1256;74639;-48
2023/11/13 03:49:26;;;;;;;1.60;1.50;;;;;;;21.01;50.33;97484.81;105844;1253;65802;-48
2023/11/13 03:51:54;;;;;;;1.90;1.70;;;;;;;21.01;50.39;97488.40;105855;1251;72717;-48
2023/11/13 03:54:22;;;;;;;1.60;1.50;;;;;;;21.01;50.52;97485.60;105864;1256;61263;-48
2023/11/13 03:56:49;;;;;;;1.90;1.70;;;;;;;21.02;50.29;97484.52;105825;1254;61228;-50
2023/11/13 03:59:18;;;;;;;2.10;1.50;;;;;;;21.02;50.42;97487.02;105722;1252;74307;-48
2023/11/13 04:01:47;;;;;;;1.70;1.60;;;;;;;21.02;50.25;97485.70;105924;1256;64615;-48
2023/11/13 04:04:14;;;;;;;1.80;1.50;;;;;;;21.03;50.41;97489.21;105968;1251;72318;-48
2023/11/13 04:06:43;;;;;;;1.90;1.70;;;;;;;21.03;50.33;97494.42;105973;1256;61317;-49
2023/11/13 04:09:11;;;;;;;2.20;1.60;;;;;;;21.04;50.23;97499.41;105685;1254;61355;-49
2023/11/13 04:11:38;;;;;;;1.50;1.40;;;;;;;21.04;50.27;97500.98;105645;1251;74351;-48
2023/11/13 04:14:06;;;;;;;1.70;1.60;;;;;;;21.05;50.40;97502.70;105810;1256;66015;-49
2023/11/13 04:16:33;;;;;;;1.70;1.50;;;;;;;21.05;50.26;97498.06;105929;1254;72571;-48
2023/11/13 04:19:01;;;;;;;1.80;1.60;;;;;;;21.06;50.31;97498.61;105649;1255;61234;-48
2023/11/13 04:21:31;;;;;;;1.80;1.50;;;;;;;21.06;50.39;97496.29;105533;1254;61309;-48
2023/11/13 04:23:59;;;;;;;1.70;1.50;;;;;;;21.07;50.37;97496.05;105862;1256;75126;-48
2023/11/13 04:26:27;;;;;;;1.60;1.50;;;;;;;21.06;50.40;97492.70;106037;1256;66003;-48
2023/11/13 04:28:55;;;;;;;1.40;1.30;;;;;;;21.07;50.34;97493.41;105947;1254;72613;-48
2023/11/13 04:31:23;;;;;;;1.60;1.40;;;;;;;21.08;50.41;97499.80;105722;1257;61256;-48
2023/11/13 04:33:50;;;;;;;1.30;1.20;;;;;;;21.08;50.33;97502.45;105609;1254;61313;-48
2023/11/13 04:36:18;;;;;;;1.50;1.40;;;;;;;21.08;50.34;97508.73;105632;1256;74433;-48
2023/11/13 04:38:46;;;;;;;1.50;1.40;;;;;;;21.09;50.29;97510.63;105608;1256;65776;-48
2023/11/13 04:41:15;;;;;;;1.50;1.40;;;;;;;21.09;50.25;97512.83;105844;1254;72661;-48
2023/11/13 04:43:43;;;;;;;1.30;1.20;;;;;;;21.09;50.26;97515.31;105955;1257;61221;-48
2023/11/13 04:46:12;;;;;;;1.40;1.30;;;;;;;21.10;50.49;97510.96;106762;1251;61232;-48
2023/11/13 04:48:40;;;;;;;1.80;1.50;;;;;;;21.10;50.33;97508.23;109393;1251;73098;-49
2023/11/13 04:51:08;;;;;;;1.50;1.40;;;;;;;21.12;50.27;97504.29;109424;1255;64499;-49
2023/11/13 04:53:35;;;;;;;2.40;1.50;;;;;;;21.13;50.35;97511.46;109434;1251;71506;-50
2023/11/13 04:56:03;;;;;;;1.70;1.60;;;;;;;21.15;50.32;97508.60;106576;1255;61352;-50
2023/11/13 04:58:32;;;;;;;1.60;1.50;;;;;;;21.17;50.25;97507.85;105898;1251;61238;-49
2023/11/13 05:00:59;;;;;;;1.80;1.70;;;;;;;21.17;50.14;97506.77;105979;1256;74560;-48
2023/11/13 05:03:27;;;;;;;1.40;1.20;;;;;;;21.18;50.23;97509.95;105970;1256;66301;-48
2023/11/13 05:05:55;;;;;;;1.70;1.50;;;;;;;21.19;49.98;97514.49;105979;1255;73620;-48
2023/11/13 05:08:23;;;;;;;1.50;1.40;;;;;;;21.20;50.16;97516.52;105861;1256;61231;-48
2023/11/13 05:10:51;;;;;;;1.90;1.50;;;;;;;21.20;49.99;97517.61;105830;1251;61151;-48
2023/11/13 05:13:18;;;;;;;1.50;1.40;;;;;;;21.20;50.16;97523.13;105878;1257;74530;-48
2023/11/13 05:15:45;;;;;;;1.40;1.30;;;;;;;21.20;50.09;97521.27;105761;1256;66145;-48
2023/11/13 05:18:13;;;;;;;1.90;1.40;;;;;;;21.21;50.03;97520.66;105748;1254;72633;-49
2023/11/13 05:20:43;;;;;;;2.50;1.50;;;;;;;21.21;50.14;97528.91;105788;1256;61247;-48
2023/11/13 05:23:10;;;;;;;1.20;1.10;;;;;;;21.21;50.15;97531.86;105669;1255;61270;-49
2023/11/13 05:25:39;;;;;;;1.40;1.30;;;;;;;21.21;50.13;97532.88;106035;1255;75610;-49
2023/11/13 05:28:07;;;;;;;1.70;1.40;;;;;;;21.21;50.10;97535.30;105954;1256;65931;-47
2023/11/13 05:30:38;;;;;;;1.60;1.50;;;;;;;21.21;50.06;97538.17;106110;1253;72693;-48
2023/11/13 05:33:05;;;;;;;1.70;1.50;;;;;;;21.21;49.98;97537.39;105960;1251;61364;-48
2023/11/13 05:35:32;;;;;;;1.50;1.30;;;;;;;21.22;50.11;97538.56;105807;1254;61282;-48
2023/11/13 05:38:00;;;;;;;1.20;1.10;;;;;;;21.21;50.00;97544.62;105730;1253;74621;-48
2023/11/13 05:40:28;;;;;;;1.20;1.10;;;;;;;21.21;50.22;97544.79;105706;1254;66069;-48
2023/11/13 05:42:56;;;;;;;1.50;1.40;;;;;;;21.22;50.18;97545.03;105750;1254;72573;-48
2023/11/13 05:45:23;;;;;;;1.40;1.30;;;;;;;21.22;50.14;97545.33;106344;1253;61320;-48
2023/11/13 05:47:51;;;;;;;1.40;1.30;;;;;;;21.22;50.11;97548.99;105961;1251;61178;-48
2023/11/13 05:50:19;;;;;;;1.60;1.40;;;;;;;21.23;49.98;97549.55;105916;1256;74559;-47
2023/11/13 05:52:50;;;;;;;1.30;1.20;;;;;;;21.22;50.23;97551.80;105863;1256;66138;-48
2023/11/13 05:55:17;;;;;;;1.90;1.40;;;;;;;21.22;50.18;97552.27;106419;1254;72597;-48
2023/11/13 05:57:45;;;;;;;1.50;1.40;;;;;;;21.23;50.06;97553.36;105741;1256;61211;-48
2023/11/13 06:00:13;;;;;;;1.50;1.40;;;;;;;21.22;50.01;97555.77;105694;1251;61322;-47
2023/11/13 06:02:40;;;;;;;1.50;1.20;;;;;;;21.22;49.98;97558.10;105733;1256;73653;-48
2023/11/13 06:05:08;;;;;;;1.50;1.40;;;;;;;21.23;50.18;97564.95;105691;1256;64437;-48
2023/11/13 06:07:37;;;;;;;1.30;1.20;;;;;;;21.23;50.02;97562.92;105745;1255;71187;-48
2023/11/13 06:10:07;;;;;;;1.40;1.20;;;;;;;21.23;50.09;97559.37;105803;1254;61343;-48
2023/11/13 06:12:34;;;;;;;1.50;1.30;;;;;;;21.23;49.98;97564.97;105769;1256;61157;-48
2023/11/13 06:15:02;;;;;;;1.30;1.20;;;;;;;21.24;50.15;97561.63;105667;1256;74866;-48
2023/11/13 06:17:30;;;;;;;1.70;1.40;;;;;;;21.24;50.06;97564.67;105709;1256;65045;-48
2023/11/13 06:19:57;;;;;;;1.60;1.50;;;;;;;21.24;50.04;97570.98;105662;1254;72550;-49
2023/11/13 06:22:26;;;;;;;1.20;1.20;;;;;;;21.24;50.17;97568.33;105728;1257;61241;-48
2023/11/13 06:24:54;;;;;;;1.90;1.30;;;;;;;21.25;50.23;97570.66;105943;1252;61340;-47
2023/11/13 06:27:22;;;;;;;1.70;1.30;;;;;;;21.25;50.14;97572.91;106001;1251;73102;-47
2023/11/13 06:29:50;;;;;;;2.70;1.40;;;;;;;21.26;50.26;97571.84;105827;1256;65785;-47
2023/11/13 06:32:18;;;;;;;1.90;1.50;;;;;;;21.26;50.39;97582.52;105680;1251;72682;-46
2023/11/13 06:34:46;;;;;;;3.30;1.30;;;;;;;21.27;50.25;97582.69;105766;1251;61228;-47
2023/11/13 06:37:13;;;;;;;1.40;1.30;;;;;;;21.27;50.30;97587.98;105873;1254;61660;-47
2023/11/13 06:39:42;;;;;;;2.70;1.30;;;;;;;21.28;50.31;97593.27;105786;1252;73624;-47
2023/11/13 06:42:12;;;;;;;3.20;1.10;;;;;;;21.29;50.43;97594.61;105925;1256;66053;-47
2023/11/13 06:44:41;;;;;;;2.80;1.40;;;;;;;21.29;50.48;97595.16;105747;1255;72039;-48
2023/11/13 06:47:08;;;;;;;2.90;1.50;;;;;;;21.30;50.65;97592.37;105882;1256;61339;-49
2023/11/13 06:49:38;;;;;;;3.50;1.70;;;;;;;21.31;51.00;97591.36;105813;1254;61236;-46
2023/11/13 06:52:07;;;;;;;1.80;1.40;;;;;;;21.31;51.22;97585.92;105790;1252;75082;-52
2023/11/13 06:54:35;;;;;;;4.90;1.70;;;;;;;21.34;51.81;97587.20;105845;1256;64933;-48
2023/11/13 06:57:04;;;;;;;4.80;1.80;;;;;;;21.37;52.38;97591.29;105691;1256;72686;-46
2023/11/13 06:59:31;;;;;;;2.30;1.40;;;;;;;21.41;52.46;97593.52;105798;1257;61320;-46
2023/11/13 07:02:01;;;;;;;2.60;1.40;;;;;;;21.44;52.68;97588.81;105730;1251;61233;-47
2023/11/13 07:04:29;;;;;;;6.40;1.50;;;;;;;21.47;52.71;97591.56;105525;1253;74311;-46
2023/11/13 07:06:57;;;;;;;3.10;1.70;;;;;;;21.49;52.53;97599.23;106858;1254;66572;-47
2023/11/13 07:09:24;;;;;;;5.20;1.60;;;;;;;21.51;52.61;97598.56;107820;1256;72390;-46
2023/11/13 07:11:51;;;;;;;2.80;1.40;;;;;;;21.53;52.38;97598.27;105728;1251;61161;-46
2023/11/13 07:14:19;;;;;;;1.70;1.30;;;;;;;21.55;52.52;97596.49;106984;1256;61189;-48
2023/11/13 07:16:46;;;;;;;2.60;1.40;;;;;;;21.56;52.17;97596.84;106304;1255;74564;-48
2023/11/13 07:19:14;;;;;;;2.40;1.40;;;;;;;21.58;52.31;97596.94;105789;1256;65932;-47
2023/11/13 07:21:42;;;;;;;4.00;1.90;;;;;;;21.59;52.17;97599.44;105661;1257;73158;-53
2023/11/13 07:24:10;;;;;;;2.50;1.60;;;;;;;21.60;52.14;97598.05;105857;1257;61170;-43
2023/11/13 07:26:37;;;;;;;2.50;1.60;;;;;;;21.62;52.26;97598.70;106968;1252;61173;-48
2023/11/13 07:29:05;;;;;;;3.30;1.70;;;;;;;21.63;52.66;97597.40;108692;1253;73168;-42
2023/11/13 07:31:33;;;;;;;7.20;1.50;;;;;;;21.66;52.58;97600.76;108724;1251;65827;-44
2023/11/13 07:34:00;;;;;;;2.50;1.50;;;;;;;21.69;52.73;97604.06;107062;1256;71113;-40
2023/11/13 07:36:31;;;;;;;2.00;1.50;;;;;;;21.71;52.59;97603.15;105983;1254;61390;-41
2023/11/13 07:38:58;;;;;;;4.60;1.70;;;;;;;21.74;52.50;97603.73;105893;1257;61368;-44
2023/11/13 07:41:26;;;;;;;5.40;1.50;;;;;;;21.77;52.52;97602.29;106019;1254;74284;-42
2023/11/13 07:43:56;;;;;;;2.30;1.80;;;;;;;21.79;52.65;97600.45;105803;1257;66021;-57
2023/11/13 07:46:23;;;;;;;2.30;1.50;;;;;;;21.83;52.60;97598.62;105937;1256;72658;-47
2023/11/13 07:48:52;;;;;;;1.70;1.40;;;;;;;21.83;52.57;97600.27;105908;1251;61180;-48
2023/11/13 07:51:22;;;;;;;2.10;1.40;;;;;;;21.85;52.58;97602.88;106036;1260;61440;-46
2023/11/13 07:53:50;;;;;;;1.90;1.50;;;;;;;21.86;52.72;97605.70;105816;1252;74308;-48
2023/11/13 07:56:19;;;;;;;7.40;1.30;;;;;;;21.88;52.65;97604.00;105827;1258;65853;-51
2023/11/13 07:58:48;;;;;;;2.00;1.30;;;;;;;21.90;52.64;97604.65;105731;1254;72597;-54
2023/11/13 08:01:16;;;;;;;2.60;1.60;;;;;;;21.92;52.41;97613.95;105837;1256;61378;-52
2023/11/13 08:03:44;;;;;;;2.40;1.40;;;;;;;21.94;52.56;97611.31;105718;1257;61308;-53
2023/11/13 08:06:12;;;;;;;1.90;1.40;;;;;;;21.95;52.58;97608.52;105829;1254;74486;-52
2023/11/13 08:08:40;;;;;;;1.70;1.40;;;;;;;21.97;52.33;97612.11;105669;1256;64356;-59
2023/11/13 08:11:08;;;;;;;1.20;1.10;;;;;;;21.97;52.47;97613.70;105679;1255;72600;-53
2023/11/13 08:13:35;;;;;;;1.60;1.20;;;;;;;21.98;52.40;97612.38;105646;1259;61237;-53
2023/11/13 08:16:04;;;;;;;1.70;1.30;;;;;;;22.01;52.48;97615.83;105781;1254;61250;-51
2023/11/13 08:18:32;;;;;;;1.20;1.10;;;;;;;22.02;52.34;97614.13;105744;1257;74547;-55
2023/11/13 08:21:00;;;;;;;2.00;1.40;;;;;;;22.03;52.31;97621.38;105636;1258;65174;-49
2023/11/13 08:23:29;;;;;;;1.40;1.20;;;;;;;22.05;52.21;97616.33;105601;1256;73392;-48
2023/11/13 08:25:59;;;;;;;2.10;1.40;;;;;;;22.05;52.18;97614.77;105833;1259;61298;-49
2023/11/13 08:28:31;;;;;;;4.40;1.40;;;;;;;22.05;52.11;97617.96;105690;1256;61273;-50
2023/11/13 08:30:59;;;;;;;2.10;1.60;;;;;;;22.03;51.92;97631.52;105611;1259;74337;-50
2023/11/13 08:33:33;;;;;;;1.60;1.40;;;;;;;22.02;51.91;97629.64;105706;1260;65071;-50
2023/11/13 08:36:04;;;;;;;2.70;1.40;;;;;;;22.02;51.85;97632.52;105724;1254;72285;-49
2023/11/13 08:38:31;;;;;;;1.60;1.50;;;;;;;22.01;51.64;97631.24;105692;1257;61339;-49
2023/11/13 08:41:00;;;;;;;2.00;1.60;;;;;;;22.00;51.36;97631.41;105716;1256;61334;-49
2023/11/13 08:43:29;;;;;;;1.50;1.30;;;;;;;22.00;51.53;97631.02;105604;1258;74427;-51
2023/11/13 08:45:57;;;;;;;2.40;1.40;;;;;;;21.99;51.61;97623.84;105761;1266;66252;-49
2023/11/13 08:48:28;;;;;;;4.10;1.40;;;;;;;21.99;51.43;97628.35;105565;1258;72569;-52
2023/11/13 08:50:59;;;;;;;2.90;1.30;;;;;;;21.99;51.50;97629.60;105920;1259;61343;-50
2023/11/13 08:53:28;;;;;;;3.10;1.60;;;;;;;22.00;51.80;97628.29;105552;1257;61349;-49
2023/11/13 08:55:57;;;;;;;2.70;1.70;;;;;;;22.02;52.07;97631.11;105694;1256;75257;-53
2023/11/13 08:58:24;;;;;;;2.00;1.50;;;;;;;22.04;52.35;97630.59;105760;1256;64752;-49
2023/11/13 09:00:53;;;;;;;2.70;1.60;;;;;;;22.07;52.50;97631.87;105767;1254;193832;-48
2023/11/13 09:03:21;;;;;;;2.60;1.60;;;;;;;22.09;52.40;97632.29;105745;1259;61225;-48
2023/11/13 09:05:49;;;;;;;2.80;1.50;;;;;;;22.11;52.55;97637.83;105694;1256;61349;-50
2023/11/13 09:08:17;;;;;;;2.00;1.40;;;;;;;22.13;52.39;97637.92;105692;1255;75334;-48
2023/11/13 09:10:45;;;;;;;2.30;1.40;;;;;;;22.13;52.37;97634.36;105583;1258;67151;-49
2023/11/13 09:13:12;;;;;;;4.20;1.50;;;;;;;22.14;52.17;97627.97;105493;1260;72565;-48
2023/11/13 09:15:40;;;;;;;2.90;1.50;;;;;;;22.15;52.21;97628.52;105718;1259;61224;-49
2023/11/13 09:18:09;;;;;;;1.50;1.30;;;;;;;22.15;51.96;97625.17;105566;1254;61361;-48
2023/11/13 09:20:41;;;;;;;4.10;1.80;;;;;;;22.15;52.00;97627.28;105523;1260;75485;-50
2023/11/13 09:23:09;;;;;;;9.50;1.80;;;;;;;22.15;51.89;97622.67;107682;1256;65884;-48
2023/11/13 09:25:37;;;;;;;4.80;1.50;;;;;;;22.15;51.78;97624.85;105632;1252;72609;-49
2023/11/13 09:28:05;;;;;;;3.30;1.40;;;;;;;22.14;51.68;97621.74;105569;1256;61330;-49
2023/11/13 09:30:32;;;;;;;3.90;1.50;;;;;;;22.14;51.69;97616.27;105958;1256;61238;-48
2023/11/13 09:33:01;;;;;;;2.70;1.40;;;;;;;22.13;51.58;97615.65;105654;1256;75368;-49
2023/11/13 09:35:30;;;;;;;5.00;1.60;;;;;;;22.13;51.43;97613.23;105828;1256;66283;-52
2023/11/13 09:37:59;;;;;;;4.80;1.70;;;;;;;22.12;51.62;97611.41;105686;1257;73147;-58
2023/11/13 09:40:29;;;;;;;7.10;1.90;;;;;;;22.11;51.46;97617.64;105912;1257;61579;-53
2023/11/13 09:43:15;;;;;;;6.70;2.00;;;;;;;22.10;51.32;97617.25;105395;1254;61269;-54
2023/11/13 09:45:46;;;;;;;4.70;1.80;;;;;;;22.10;51.54;97619.50;105856;1252;75790;-56
2023/11/13 09:48:29;;;;;;;3.50;1.50;;;;;;;22.08;51.70;97616.84;105439;1254;65489;-54
2023/11/13 09:50:57;;;;;;;4.90;1.80;;;;;;;22.05;51.62;97617.20;106333;1256;73484;-54
2023/11/13 09:53:26;;;;;;;3.90;1.50;;;;;;;22.03;51.77;97614.45;105417;1259;61241;-53
2023/11/13 09:55:53;;;;;;;4.60;1.60;;;;;;;22.00;51.77;97619.34;105780;1257;61382;-59
2023/11/13 09:58:21;;;;;;;2.40;1.40;;;;;;;21.97;52.00;97616.79;105856;1256;75340;-59
2023/11/13 10:00:50;;;;;;;1.60;1.30;;;;;;;21.93;52.01;97618.31;105955;1256;64169;-57
2023/11/13 10:03:17;;;;;;;3.80;1.30;;;;;;;21.90;52.10;97616.48;105631;1257;72125;-55
2023/11/13 10:05:45;;;;;;;2.60;1.50;;;;;;;21.87;52.31;97607.89;105871;1257;61228;-55
2023/11/13 10:08:14;;;;;;;2.60;1.40;;;;;;;21.83;52.44;97604.40;105798;1255;61244;-57
2023/11/13 10:10:42;;;;;;;6.30;1.70;;;;;;;21.80;52.59;97606.61;105617;1252;75071;-58
2023/11/13 10:13:11;;;;;;;4.30;1.80;;;;;;;21.76;52.59;97601.35;105909;1253;65399;-52
2023/11/13 10:15:42;;;;;;;3.10;1.80;;;;;;;21.73;52.60;97605.84;105909;1257;71852;-60
2023/11/13 10:18:12;;;;;;;1.90;1.40;;;;;;;21.69;52.84;97605.01;105726;1255;61340;-59
2023/11/13 10:20:42;;;;;;;4.40;1.70;;;;;;;21.65;52.85;97602.93;105714;1258;61211;-59
2023/11/13 10:23:13;;;;;;;5.30;1.60;;;;;;;21.64;52.87;97607.20;105661;1255;74584;-60
2023/11/13 10:25:52;;;;;;;4.00;1.60;;;;;;;21.61;52.88;97603.73;105729;1256;64719;-58
2023/11/13 10:28:23;;;;;;;8.50;1.60;;;;;;;21.58;52.97;97602.62;105609;1257;73800;-61
2023/11/13 10:30:51;;;;;;;2.50;1.60;;;;;;;21.55;53.04;97595.27;105678;1256;61297;-58
2023/11/13 10:33:19;;;;;;;3.70;1.50;;;;;;;21.53;53.19;97596.55;105656;1255;61359;-55
2023/11/13 10:35:50;;;;;;;1.90;1.50;;;;;;;21.51;53.33;97592.57;105856;1251;73792;-62
2023/11/13 10:38:22;;;;;;;2.40;1.50;;;;;;;21.50;53.27;97591.15;105791;1265;65512;-56
2023/11/13 10:40:57;;;;;;;4.00;1.40;;;;;;;21.49;53.35;97594.93;105670;1255;73788;-57
2023/11/13 10:43:29;;;;;;;3.90;1.70;;;;;;;21.47;53.51;97592.42;105723;1254;61342;-57
2023/11/13 10:49:28;;;;;;;3.70;1.50;;;;;;;21.43;53.70;97594.24;105413;1258;74322;-54
2023/11/13 10:51:59;;;;;;;5.70;1.70;;;;;;;21.41;53.74;97592.35;106211;1254;66779;-59
2023/11/13 10:54:28;;;;;;;3.80;1.60;;;;;;;21.40;53.84;97595.30;107786;1254;74447;-56
2023/11/13 10:56:56;;;;;;;4.30;1.80;;;;;;;21.38;53.95;97591.08;105638;1260;61647;-56
2023/11/13 10:59:23;;;;;;;3.50;1.60;;;;;;;21.38;53.62;97588.27;105830;1264;61251;-56
2023/11/13 11:01:51;;;;;;;4.40;1.70;;;;;;;21.36;53.58;97589.95;105870;1256;74648;-62
2023/11/13 11:04:20;;;;;;;3.50;1.80;;;;;;;21.35;53.41;97587.45;105662;1259;66526;-58
2023/11/13 11:06:47;;;;;;;2.80;1.80;;;;;;;21.34;53.49;97584.80;105970;1256;73604;-61
2023/11/13 11:09:17;;;;;;;7.30;1.80;;;;;;;21.32;53.28;97585.71;105639;1260;61231;-63
2023/11/13 11:11:48;;;;;;;4.00;1.70;;;;;;;21.30;53.31;97582.87;105853;1251;61339;-57
2023/11/13 11:14:19;;;;;;;3.10;1.60;;;;;;;21.28;53.20;97582.16;105832;1251;75645;-56
2023/11/13 11:17:08;;;;;;;6.00;1.70;;;;;;;21.27;53.23;97579.48;107965;1251;66969;-56
2023/11/13 11:19:44;;;;;;;6.30;1.50;;;;;;;21.25;53.24;97580.79;105857;1251;72566;-60
2023/11/13 11:22:27;;;;;;;4.10;1.60;;;;;;;21.24;53.40;97578.76;105887;1256;61217;-61
2023/11/13 11:25:01;;;;;;;3.50;1.60;;;;;;;21.23;53.44;97578.98;105784;1251;61320;-60
2023/11/13 11:27:41;;;;;;;3.50;1.70;;;;;;;21.22;53.55;97575.22;105727;1251;75378;-59
2023/11/13 11:30:18;;;;;;;3.80;1.60;;;;;;;21.21;53.60;97571.23;105748;1257;66188;-52
2023/11/13 11:32:53;;;;;;;3.20;1.50;;;;;;;21.21;53.73;97576.06;105729;1251;72659;-58